createdAt,value
2018-11-29T00:00:32.109Z,0.00
2018-11-29T00:03:00.659Z,0.10
2018-11-29T00:05:29.570Z,0.10
2018-11-29T00:07:58.798Z,0.20
2018-11-29T00:10:27.448Z,0.30
2018-11-29T00:12:56.034Z,0.40
2018-11-29T00:15:24.635Z,0.40
2018-11-29T00:17:53.503Z,0.40
2018-11-29T00:20:22.059Z,0.50
2018-11-29T00:22:51.286Z,0.50
2018-11-29T00:25:20.182Z,0.40
2018-11-29T00:27:48.999Z,0.30
2018-11-29T00:30:22.434Z,0.20
2018-11-29T00:32:53.692Z,0.10
2018-11-29T00:35:22.307Z,0.00
2018-11-29T00:37:51.048Z,0.00
2018-11-29T00:40:20.522Z,0.00
2018-11-29T00:42:49.290Z,0.10
2018-11-29T00:46:48.817Z,0.00
2018-11-29T00:49:17.318Z,0.00
2018-11-29T00:51:45.854Z,-0.10
2018-11-29T00:54:14.463Z,-0.10
2018-11-29T00:56:43.314Z,-0.20
2018-11-29T00:59:12.184Z,-0.20
2018-11-29T01:01:46.566Z,-0.20
2018-11-29T01:04:15.310Z,-0.30
2018-11-29T01:06:43.850Z,-0.40
2018-11-29T01:09:13.182Z,-0.40
2018-11-29T01:11:41.739Z,-0.40
2018-11-29T01:14:10.534Z,-0.40
2018-11-29T01:16:39.427Z,-0.40
2018-11-29T01:19:07.934Z,-0.30
2018-11-29T01:21:36.600Z,-0.30
2018-11-29T01:24:05.711Z,-0.30
2018-11-29T01:26:34.320Z,-0.30
2018-11-29T01:29:02.931Z,-0.30
2018-11-29T01:31:31.984Z,-0.30
2018-11-29T01:34:00.503Z,-0.30
2018-11-29T01:36:29.335Z,-0.30
2018-11-29T01:38:58.213Z,-0.30
2018-11-29T01:41:26.951Z,-0.20
2018-11-29T01:43:55.676Z,-0.20
2018-11-29T01:46:24.243Z,-0.30
2018-11-29T01:48:52.802Z,-0.30
2018-11-29T01:51:21.528Z,-0.30
2018-11-29T01:53:50.494Z,-0.20
2018-11-29T01:56:19.426Z,-0.30
2018-11-29T01:58:48.158Z,-0.30
2018-11-29T02:01:17.158Z,-0.30
2018-11-29T02:03:45.762Z,-0.20
2018-11-29T02:06:14.655Z,-0.30
2018-11-29T02:08:43.822Z,-0.30
2018-11-29T02:11:12.343Z,-0.30
2018-11-29T02:13:40.872Z,-0.30
2018-11-29T02:16:09.573Z,-0.30
2018-11-29T02:18:38.303Z,-0.20
2018-11-29T02:21:07.529Z,-0.10
2018-11-29T02:23:36.924Z,0.00
2018-11-29T02:26:05.656Z,0.10
2018-11-29T02:28:34.355Z,0.10
2018-11-29T02:31:03.024Z,0.10
2018-11-29T02:33:31.688Z,0.10
2018-11-29T02:36:00.423Z,0.20
2018-11-29T02:38:29.270Z,0.30
2018-11-29T02:40:57.897Z,0.40
2018-11-29T02:43:26.612Z,0.50
2018-11-29T02:45:55.376Z,0.60
2018-11-29T02:48:23.937Z,0.60
2018-11-29T02:50:52.547Z,0.70
2018-11-29T02:53:21.784Z,0.80
2018-11-29T02:55:50.531Z,0.80
2018-11-29T02:58:19.062Z,0.80
2018-11-29T03:02:17.399Z,0.80
2018-11-29T03:04:46.088Z,0.80
2018-11-29T03:07:14.834Z,0.90
2018-11-29T03:09:44.056Z,0.90
2018-11-29T03:12:12.704Z,0.90
2018-11-29T03:14:41.232Z,0.90
2018-11-29T03:17:10.295Z,0.90
2018-11-29T03:19:38.850Z,0.90
2018-11-29T03:22:07.403Z,1.00
2018-11-29T03:24:36.238Z,0.90
2018-11-29T03:27:05.303Z,1.00
2018-11-29T03:29:34.034Z,1.00
2018-11-29T03:32:02.939Z,1.00
2018-11-29T03:34:31.643Z,1.00
2018-11-29T03:37:00.322Z,1.00
2018-11-29T03:39:29.115Z,1.10
2018-11-29T03:41:57.618Z,1.20
2018-11-29T03:44:26.365Z,1.20
2018-11-29T03:46:55.170Z,1.30
2018-11-29T03:49:23.682Z,1.30
2018-11-29T03:51:55.497Z,1.40
2018-11-29T03:54:24.474Z,1.40
2018-11-29T03:56:53.058Z,1.40
2018-11-29T03:59:21.739Z,1.50
2018-11-29T04:01:50.323Z,1.50
2018-11-29T04:04:18.942Z,1.50
2018-11-29T04:06:47.458Z,1.50
2018-11-29T04:09:16.923Z,1.50
2018-11-29T04:11:45.642Z,1.60
2018-11-29T04:14:16.182Z,1.60
2018-11-29T04:16:44.982Z,1.50
2018-11-29T04:19:13.603Z,1.50
2018-11-29T04:21:42.275Z,1.50
2018-11-29T04:24:11.100Z,1.40
2018-11-29T04:26:39.619Z,1.50
2018-11-29T04:29:08.143Z,1.50
2018-11-29T04:31:36.746Z,1.60
2018-11-29T04:34:05.547Z,1.60
2018-11-29T04:36:34.310Z,1.60
2018-11-29T04:39:03.162Z,1.60
2018-11-29T04:41:31.783Z,1.60
2018-11-29T04:44:00.434Z,1.60
2018-11-29T04:46:59.457Z,1.70
2018-11-29T04:49:27.997Z,1.60
2018-11-29T04:51:56.571Z,1.60
2018-11-29T04:55:54.522Z,1.60
2018-11-29T04:58:23.320Z,1.50
2018-11-29T05:00:52.039Z,1.50
2018-11-29T05:03:21.055Z,1.60
2018-11-29T05:05:49.657Z,1.60
2018-11-29T05:09:48.562Z,1.60
2018-11-29T05:12:17.265Z,1.70
2018-11-29T05:14:45.790Z,1.70
2018-11-29T05:17:14.683Z,1.70
2018-11-29T05:19:43.360Z,1.70
2018-11-29T05:23:42.030Z,1.70
2018-11-29T05:26:10.610Z,1.70
2018-11-29T05:28:39.150Z,1.80
2018-11-29T05:31:08.219Z,1.90
2018-11-29T05:33:36.814Z,1.90
2018-11-29T05:36:05.526Z,1.90
2018-11-29T05:38:34.702Z,1.90
2018-11-29T05:41:04.442Z,1.90
2018-11-29T05:43:32.970Z,1.90
2018-11-29T05:46:02.006Z,1.90
2018-11-29T05:48:30.812Z,2.00
2018-11-29T05:50:59.366Z,2.10
2018-11-29T05:53:28.187Z,2.10
2018-11-29T05:55:56.797Z,2.10
2018-11-29T05:58:25.354Z,2.00
2018-11-29T06:00:54.327Z,2.10
2018-11-29T06:03:22.924Z,2.00
2018-11-29T06:05:51.486Z,2.10
2018-11-29T06:08:20.003Z,2.00
2018-11-29T06:10:48.546Z,2.10
2018-11-29T06:13:17.487Z,2.10
2018-11-29T06:15:46.891Z,2.20
2018-11-29T06:18:15.471Z,2.20
2018-11-29T06:20:44.050Z,2.20
2018-11-29T06:23:12.706Z,2.20
2018-11-29T06:25:41.443Z,2.20
2018-11-29T06:28:10.038Z,2.30
2018-11-29T06:30:38.727Z,2.30
2018-11-29T06:33:07.302Z,2.30
2018-11-29T06:35:35.934Z,2.30
2018-11-29T06:38:04.738Z,2.40
2018-11-29T06:40:33.242Z,2.40
2018-11-29T06:43:01.883Z,2.40
2018-11-29T06:45:30.655Z,2.40
2018-11-29T06:48:00.282Z,2.40
2018-11-29T06:50:28.813Z,2.40
2018-11-29T06:52:57.614Z,2.40
2018-11-29T06:55:26.189Z,2.30
2018-11-29T06:57:54.735Z,2.40
2018-11-29T07:00:29.350Z,2.40
2018-11-29T07:02:57.924Z,2.40
2018-11-29T07:05:26.624Z,2.40
2018-11-29T07:07:55.414Z,2.50
2018-11-29T07:10:29.169Z,2.40
2018-11-29T07:12:58.534Z,2.40
2018-11-29T07:15:27.259Z,2.40
2018-11-29T07:17:56.054Z,2.40
2018-11-29T07:20:24.971Z,2.40
2018-11-29T07:22:53.526Z,2.40
2018-11-29T07:25:22.099Z,2.30
2018-11-29T07:27:51.013Z,2.30
2018-11-29T07:30:19.638Z,2.40
2018-11-29T07:32:48.226Z,2.40
2018-11-29T07:35:17.358Z,2.50
2018-11-29T07:37:45.939Z,2.50
2018-11-29T07:40:16.717Z,2.50
2018-11-29T07:42:46.205Z,2.50
2018-11-29T07:45:15.826Z,2.50
2018-11-29T07:47:45.410Z,2.50
2018-11-29T07:50:18.353Z,2.50
2018-11-29T07:52:46.930Z,2.60
2018-11-29T07:55:16.418Z,2.70
2018-11-29T07:57:45.959Z,2.70
2018-11-29T08:00:15.923Z,2.70
2018-11-29T08:02:44.594Z,2.70
2018-11-29T08:05:14.564Z,2.80
2018-11-29T08:07:47.562Z,2.80
2018-11-29T08:10:14.744Z,2.80
2018-11-29T08:12:43.914Z,2.80
2018-11-29T08:15:13.734Z,2.80
2018-11-29T08:17:42.422Z,2.80
2018-11-29T08:20:15.518Z,2.80
2018-11-29T08:22:44.134Z,2.90
2018-11-29T08:25:13.065Z,2.80
2018-11-29T08:27:41.911Z,2.80
2018-11-29T08:30:12.526Z,2.80
2018-11-29T08:32:41.206Z,2.70
2018-11-29T08:35:12.129Z,2.60
2018-11-29T08:37:41.586Z,2.70
2018-11-29T08:40:14.462Z,2.70
2018-11-29T08:42:43.006Z,2.70
2018-11-29T08:45:11.860Z,2.70
2018-11-29T08:47:41.175Z,2.70
2018-11-29T08:50:10.940Z,2.70
2018-11-29T08:52:40.020Z,2.70
2018-11-29T08:55:10.986Z,2.70
2018-11-29T08:57:39.539Z,2.80
2018-11-29T09:00:13.259Z,2.80
2018-11-29T09:02:41.903Z,2.80
2018-11-29T09:05:11.310Z,2.90
2018-11-29T09:07:40.702Z,2.90
2018-11-29T09:10:11.350Z,2.90
2018-11-29T09:12:41.227Z,2.90
2018-11-29T09:15:11.028Z,2.90
2018-11-29T09:17:39.824Z,2.80
2018-11-29T09:20:12.237Z,2.90
2018-11-29T09:22:40.938Z,2.90
2018-11-29T09:25:11.640Z,2.90
2018-11-29T09:27:40.473Z,2.90
2018-11-29T09:30:19.479Z,2.90
2018-11-29T09:32:49.284Z,3.00
2018-11-29T09:35:17.889Z,3.00
2018-11-29T09:37:46.556Z,3.00
2018-11-29T09:40:17.167Z,3.10
2018-11-29T09:42:45.879Z,3.20
2018-11-29T09:45:21.883Z,3.20
2018-11-29T09:47:51.600Z,3.20
2018-11-29T09:50:21.932Z,3.30
2018-11-29T09:52:50.726Z,3.30
2018-11-29T09:55:19.257Z,3.30
2018-11-29T09:57:48.728Z,3.30
2018-11-29T10:00:27.836Z,3.30
2018-11-29T10:02:55.691Z,3.40
2018-11-29T10:05:25.049Z,3.30
2018-11-29T10:07:53.655Z,3.40
2018-11-29T10:10:22.434Z,3.40
2018-11-29T10:12:51.039Z,3.40
2018-11-29T10:15:19.602Z,3.40
2018-11-29T10:17:48.134Z,3.40
2018-11-29T10:20:16.920Z,3.40
2018-11-29T10:22:45.962Z,3.40
2018-11-29T10:25:15.243Z,3.50
2018-11-29T10:27:47.906Z,3.40
2018-11-29T10:30:28.404Z,3.50
2018-11-29T10:32:57.357Z,3.40
2018-11-29T10:35:26.016Z,3.40
2018-11-29T10:37:54.814Z,3.40
2018-11-29T10:40:23.588Z,3.40
2018-11-29T10:42:52.458Z,3.40
2018-11-29T10:45:21.561Z,3.50
2018-11-29T10:47:52.463Z,3.50
2018-11-29T10:50:20.223Z,3.50
2018-11-29T10:52:48.948Z,3.50
2018-11-29T10:55:18.931Z,3.50
2018-11-29T10:59:16.838Z,3.50
2018-11-29T11:01:49.808Z,3.50
2018-11-29T11:04:18.546Z,3.50
2018-11-29T11:06:47.236Z,3.50
2018-11-29T11:09:16.210Z,3.50
2018-11-29T11:11:45.025Z,3.40
2018-11-29T11:14:13.607Z,3.40
2018-11-29T11:16:42.236Z,3.40
2018-11-29T11:19:10.826Z,3.40
2018-11-29T11:21:39.718Z,3.40
2018-11-29T11:24:09.123Z,3.50
2018-11-29T11:26:38.007Z,3.50
2018-11-29T11:29:07.282Z,3.50
2018-11-29T11:31:36.308Z,3.60
2018-11-29T11:34:07.552Z,3.60
2018-11-29T11:36:36.387Z,3.60
2018-11-29T11:39:07.396Z,3.70
2018-11-29T11:41:36.084Z,3.60
2018-11-29T11:44:05.075Z,3.50
2018-11-29T11:46:34.416Z,3.50
2018-11-29T11:55:53.599Z,3.40
2018-11-29T11:58:17.948Z,3.40
2018-11-29T12:00:46.528Z,3.30
2018-11-29T12:03:16.461Z,3.30
2018-11-29T12:05:45.127Z,3.30
2018-11-29T12:08:14.118Z,3.30
2018-11-29T12:10:43.943Z,3.40
2018-11-29T12:13:12.802Z,3.30
2018-11-29T12:15:41.426Z,3.40
2018-11-29T12:18:13.149Z,3.40
2018-11-29T12:20:41.901Z,3.30
2018-11-29T12:23:10.743Z,3.30
2018-11-29T12:25:39.659Z,3.30
2018-11-29T12:28:08.265Z,3.30
2018-11-29T12:30:44.239Z,3.20
2018-11-29T12:33:12.977Z,3.20
2018-11-29T12:35:41.854Z,3.20
2018-11-29T12:38:10.813Z,3.20
2018-11-29T12:40:39.776Z,3.30
2018-11-29T12:43:08.568Z,3.20
2018-11-29T12:45:38.249Z,3.20
2018-11-29T12:48:07.086Z,3.20
2018-11-29T12:50:37.949Z,3.20
2018-11-29T12:53:07.537Z,3.20
2018-11-29T12:55:45.135Z,3.20
2018-11-29T12:58:14.552Z,3.10
2018-11-29T13:00:43.189Z,3.10
2018-11-29T13:04:41.334Z,3.00
2018-11-29T13:07:10.042Z,2.90
2018-11-29T13:09:39.574Z,2.90
2018-11-29T13:12:08.606Z,2.90
2018-11-29T13:14:37.692Z,2.80
2018-11-29T13:17:06.764Z,2.80
2018-11-29T13:19:36.424Z,2.70
2018-11-29T13:22:05.146Z,2.70
2018-11-29T13:24:33.797Z,2.70
2018-11-29T13:27:02.880Z,2.60
2018-11-29T13:29:31.516Z,2.60
2018-11-29T13:32:00.489Z,2.60
2018-11-29T13:34:29.669Z,2.60
2018-11-29T13:36:58.479Z,2.70
2018-11-29T13:39:27.411Z,2.70
2018-11-29T13:41:56.241Z,2.70
2018-11-29T13:44:25.239Z,2.70
2018-11-29T13:46:53.933Z,2.70
2018-11-29T13:49:22.955Z,2.80
2018-11-29T13:51:51.652Z,2.80
2018-11-29T13:54:20.364Z,2.90
2018-11-29T13:56:49.215Z,2.90
2018-11-29T13:59:23.644Z,2.90
2018-11-29T14:01:52.288Z,2.90
2018-11-29T14:04:20.874Z,2.90
2018-11-29T14:06:49.665Z,3.00
2018-11-29T14:09:18.533Z,3.00
2018-11-29T14:11:47.223Z,3.00
2018-11-29T14:14:15.916Z,3.10
2018-11-29T14:16:44.801Z,3.10
2018-11-29T14:19:13.577Z,3.10
2018-11-29T14:21:43.674Z,3.10
2018-11-29T14:24:12.578Z,3.10
2018-11-29T14:26:41.184Z,3.10
2018-11-29T14:29:09.886Z,3.10
2018-11-29T14:31:38.505Z,3.10
2018-11-29T14:34:07.331Z,3.10
2018-11-29T14:36:35.972Z,3.10
2018-11-29T14:39:05.847Z,3.10
2018-11-29T14:41:34.646Z,3.10
2018-11-29T14:44:03.429Z,3.10
2018-11-29T14:46:32.453Z,3.20
2018-11-29T14:49:01.050Z,3.20
2018-11-29T14:51:30.416Z,3.20
2018-11-29T14:53:59.115Z,3.20
2018-11-29T14:56:27.710Z,3.20
2018-11-29T14:58:56.559Z,3.20
2018-11-29T15:01:25.755Z,3.20
2018-11-29T15:03:54.517Z,3.20
2018-11-29T15:06:23.220Z,3.20
2018-11-29T15:08:52.298Z,3.20
2018-11-29T15:11:20.989Z,3.20
2018-11-29T15:13:49.702Z,3.20
2018-11-29T15:16:18.830Z,3.20
2018-11-29T15:18:49.579Z,3.30
2018-11-29T15:21:18.219Z,3.30
2018-11-29T15:23:47.128Z,3.40
2018-11-29T15:26:15.787Z,3.30
2018-11-29T15:28:44.370Z,3.30
2018-11-29T15:31:13.152Z,3.30
2018-11-29T15:33:41.728Z,3.40
2018-11-29T15:36:10.363Z,3.40
2018-11-29T15:38:38.984Z,3.40
2018-11-29T15:41:07.676Z,3.50
2018-11-29T15:43:36.260Z,3.40
2018-11-29T15:46:04.919Z,3.40
2018-11-29T15:48:35.514Z,3.40
2018-11-29T15:51:04.123Z,3.40
2018-11-29T15:53:32.984Z,3.40
2018-11-29T15:56:01.699Z,3.40
2018-11-29T15:58:30.280Z,3.40
2018-11-29T16:00:59.268Z,3.40
2018-11-29T16:03:28.138Z,3.40
2018-11-29T16:05:57.367Z,3.40
2018-11-29T16:08:26.083Z,3.40
2018-11-29T16:10:56.244Z,3.40
2018-11-29T16:13:25.020Z,3.40
2018-11-29T16:15:54.463Z,3.40
2018-11-29T16:18:23.274Z,3.50
2018-11-29T16:20:51.980Z,3.40
2018-11-29T16:23:21.020Z,3.30
2018-11-29T16:25:50.069Z,3.20
2018-11-29T16:28:18.690Z,3.10
2018-11-29T16:30:52.589Z,3.00
2018-11-29T16:33:23.731Z,2.90
2018-11-29T16:35:52.654Z,2.80
2018-11-29T16:38:21.801Z,2.70
2018-11-29T16:40:50.440Z,2.70
2018-11-29T16:43:19.130Z,2.70
2018-11-29T16:47:17.556Z,2.60
2018-11-29T16:49:46.228Z,2.60
2018-11-29T16:52:18.160Z,2.60
2018-11-29T16:54:46.999Z,2.60
2018-11-29T16:57:15.649Z,2.50
2018-11-29T16:59:44.698Z,2.50
2018-11-29T17:10:26.860Z,2.50
2018-11-29T17:13:01.279Z,2.50
2018-11-29T17:15:30.095Z,2.50
2018-11-29T17:17:59.122Z,2.40
2018-11-29T17:20:33.051Z,2.40
2018-11-29T17:23:01.907Z,2.40
2018-11-29T17:25:31.248Z,2.40
2018-11-29T17:28:00.488Z,2.40
2018-11-29T17:30:29.132Z,2.40
2018-11-29T17:33:00.866Z,2.40
2018-11-29T17:35:29.504Z,2.40
2018-11-29T17:38:00.022Z,2.40
2018-11-29T17:40:28.732Z,2.50
2018-11-29T17:42:58.371Z,2.50
2018-11-29T17:45:28.204Z,2.50
2018-11-29T17:47:59.129Z,2.50
2018-11-29T17:50:30.895Z,2.60
2018-11-29T17:53:01.181Z,2.60
2018-11-29T17:55:30.236Z,2.50
2018-11-29T17:57:58.850Z,2.50
2018-11-29T18:00:29.135Z,2.50
2018-11-29T18:02:57.824Z,2.50
2018-11-29T18:05:26.615Z,2.50
2018-11-29T18:07:55.614Z,2.50
2018-11-29T18:10:25.276Z,2.40
2018-11-29T18:12:55.558Z,2.40
2018-11-29T18:15:26.938Z,2.40
2018-11-29T18:17:57.306Z,2.40
2018-11-29T18:21:55.487Z,2.40
2018-11-29T18:24:24.152Z,2.50
2018-11-29T18:26:52.902Z,2.50
2018-11-29T18:29:21.834Z,2.50
2018-11-29T18:31:50.565Z,2.50
2018-11-29T18:34:19.207Z,2.50
2018-11-29T18:36:48.284Z,2.50
2018-11-29T18:39:16.901Z,2.50
2018-11-29T18:41:45.697Z,2.50
2018-11-29T18:44:14.744Z,2.60
2018-11-29T18:46:44.021Z,2.70
2018-11-29T18:50:43.359Z,2.70
2018-11-29T18:53:12.254Z,2.70
2018-11-29T18:55:40.955Z,2.70
2018-11-29T18:58:09.593Z,2.70
2018-11-29T19:00:38.777Z,2.70
2018-11-29T19:03:08.253Z,2.70
2018-11-29T19:05:37.179Z,2.80
2018-11-29T19:08:07.357Z,2.60
2018-11-29T19:10:36.158Z,2.70
2018-11-29T19:13:10.412Z,2.60
2018-11-29T19:15:39.762Z,2.70
2018-11-29T19:18:10.702Z,2.60
2018-11-29T19:20:40.255Z,2.70
2018-11-29T19:23:10.132Z,2.60
2018-11-29T19:25:38.895Z,2.60
2018-11-29T19:28:08.972Z,2.60
2018-11-29T19:30:38.264Z,2.60
2018-11-29T19:33:17.455Z,2.70
2018-11-29T19:35:45.698Z,2.60
2018-11-29T19:38:14.645Z,2.70
2018-11-29T19:40:44.279Z,2.70
2018-11-29T19:43:12.986Z,2.70
2018-11-29T19:45:41.885Z,2.70
2018-11-29T19:48:16.730Z,2.70
2018-11-29T19:50:45.694Z,2.70
2018-11-29T19:53:16.693Z,2.70
2018-11-29T19:55:46.603Z,2.70
2018-11-29T19:58:15.390Z,2.70
2018-11-29T20:00:44.097Z,2.60
2018-11-29T20:03:12.982Z,2.70
2018-11-29T20:05:42.030Z,2.60
2018-11-29T20:08:11.215Z,2.60
2018-11-29T20:10:40.359Z,2.70
2018-11-29T20:13:11.620Z,2.70
2018-11-29T20:15:42.258Z,2.70
2018-11-29T20:18:12.742Z,2.70
2018-11-29T20:20:48.215Z,2.70
2018-11-29T20:23:24.953Z,2.80
2018-11-29T20:25:54.494Z,2.80
2018-11-29T20:31:12.890Z,2.80
2018-11-29T20:33:45.828Z,2.90
2018-11-29T20:36:14.925Z,2.90
2018-11-29T20:38:43.543Z,2.90
2018-11-29T20:42:41.991Z,2.90
2018-11-29T20:45:14.472Z,2.90
2018-11-29T20:47:44.113Z,2.90
2018-11-29T20:50:16.295Z,2.90
2018-11-29T20:52:45.719Z,2.90
2018-11-29T20:55:26.310Z,2.90
2018-11-29T20:57:54.958Z,2.90
2018-11-29T21:00:23.498Z,2.90
2018-11-29T21:02:52.042Z,2.90
2018-11-29T21:05:21.778Z,2.90
2018-11-29T21:08:00.276Z,2.90
2018-11-29T21:10:29.759Z,2.90
2018-11-29T21:13:03.608Z,2.90
2018-11-29T21:15:32.399Z,2.90
2018-11-29T21:18:00.951Z,3.00
2018-11-29T21:20:29.511Z,2.90
2018-11-29T21:22:58.667Z,3.00
2018-11-29T21:25:27.456Z,2.90
2018-11-29T21:27:58.427Z,2.90
2018-11-29T21:30:34.584Z,3.00
2018-11-29T21:33:03.590Z,3.00
2018-11-29T21:35:32.180Z,3.00
2018-11-29T21:38:02.333Z,3.00
2018-11-29T21:40:32.222Z,3.00
2018-11-29T21:43:01.054Z,3.00
2018-11-29T21:45:29.772Z,3.00
2018-11-29T21:47:58.335Z,3.10
2018-11-29T21:50:27.015Z,3.00
2018-11-29T21:52:56.399Z,3.00
2018-11-29T21:55:25.868Z,3.10
2018-11-29T21:57:56.560Z,3.00
2018-11-29T22:00:25.246Z,3.10
2018-11-29T22:02:56.052Z,3.10
2018-11-29T22:12:20.508Z,3.10
2018-11-29T22:14:49.165Z,3.20
2018-11-29T22:17:17.824Z,3.20
2018-11-29T22:19:46.669Z,3.20
2018-11-29T22:22:15.348Z,3.20
2018-11-29T22:24:44.286Z,3.20
2018-11-29T22:27:13.154Z,3.20
2018-11-29T22:29:41.818Z,3.20
2018-11-29T22:32:18.108Z,3.20
2018-11-29T22:34:46.918Z,3.20
2018-11-29T22:37:15.451Z,3.30
2018-11-29T22:39:46.386Z,3.30
2018-11-29T22:42:14.955Z,3.30
2018-11-29T22:44:44.892Z,3.30
2018-11-29T22:48:44.578Z,3.30
2018-11-29T22:51:13.157Z,3.20
2018-11-29T22:53:41.770Z,3.30
2018-11-29T22:56:10.710Z,3.30
2018-11-29T22:58:39.431Z,3.30
2018-11-29T23:01:14.236Z,3.30
2018-11-29T23:03:42.887Z,3.40
2018-11-29T23:06:12.293Z,3.40
2018-11-29T23:08:41.262Z,3.40
2018-11-29T23:11:09.848Z,3.40
2018-11-29T23:13:38.608Z,3.40
2018-11-29T23:16:07.630Z,3.30
2018-11-29T23:18:36.172Z,3.30
2018-11-29T23:21:04.995Z,3.40
2018-11-29T23:25:03.315Z,3.40
2018-11-29T23:27:31.860Z,3.30
2018-11-29T23:30:00.452Z,3.30
2018-11-29T23:32:30.495Z,3.30
2018-11-29T23:35:00.371Z,3.30
2018-11-29T23:37:28.991Z,3.30
2018-11-29T23:39:57.936Z,3.30
2018-11-29T23:42:26.497Z,3.40
2018-11-29T23:44:55.333Z,3.40
2018-11-29T23:47:23.947Z,3.30
2018-11-29T23:51:21.907Z,3.30
2018-11-29T23:53:50.655Z,3.30
2018-11-29T23:56:19.804Z,3.30
2018-11-29T23:58:48.562Z,3.30
